sensor_id;sensor_type;location;lat;lon;timestamp;P1;durP1;ratioP1;P2;durP2;ratioP2
54831;SDS011;40730;53.068;6.572;2023-04-24T00:01:40;0.90;;;0.45;;
54831;SDS011;40730;53.068;6.572;2023-04-24T00:04:07;0.95;;;0.43;;
54831;SDS011;40730;53.068;6.572;2023-04-24T00:06:35;0.90;;;0.35;;
54831;SDS011;40730;53.068;6.572;2023-04-24T00:09:07;0.90;;;0.60;;
54831;SDS011;40730;53.068;6.572;2023-04-24T00:11:34;1.98;;;0.40;;
54831;SDS011;40730;53.068;6.572;2023-04-24T00:14:01;2.13;;;0.30;;
54831;SDS011;40730;53.068;6.572;2023-04-24T00:16:26;0.52;;;0.30;;
54831;SDS011;40730;53.068;6.572;2023-04-24T00:18:52;1.15;;;0.30;;
54831;SDS011;40730;53.068;6.572;2023-04-24T00:21:18;0.50;;;0.30;;
54831;SDS011;40730;53.068;6.572;2023-04-24T00:23:44;0.40;;;0.20;;
54831;SDS011;40730;53.068;6.572;2023-04-24T00:26:10;0.80;;;0.30;;
54831;SDS011;40730;53.068;6.572;2023-04-24T00:28:35;1.15;;;0.30;;
54831;SDS011;40730;53.068;6.572;2023-04-24T00:31:01;0.50;;;0.30;;
54831;SDS011;40730;53.068;6.572;2023-04-24T00:33:27;0.55;;;0.30;;
54831;SDS011;40730;53.068;6.572;2023-04-24T00:35:52;0.52;;;0.30;;
54831;SDS011;40730;53.068;6.572;2023-04-24T00:38:18;0.93;;;0.40;;
54831;SDS011;40730;53.068;6.572;2023-04-24T00:40:44;0.93;;;0.30;;
54831;SDS011;40730;53.068;6.572;2023-04-24T00:43:09;0.60;;;0.30;;
54831;SDS011;40730;53.068;6.572;2023-04-24T00:45:36;0.90;;;0.30;;
54831;SDS011;40730;53.068;6.572;2023-04-24T00:48:01;0.40;;;0.20;;
54831;SDS011;40730;53.068;6.572;2023-04-24T00:50:28;1.52;;;0.32;;
54831;SDS011;40730;53.068;6.572;2023-04-24T00:52:53;0.68;;;0.40;;
54831;SDS011;40730;53.068;6.572;2023-04-24T00:55:19;0.75;;;0.55;;
54831;SDS011;40730;53.068;6.572;2023-04-24T00:57:45;0.80;;;0.50;;
54831;SDS011;40730;53.068;6.572;2023-04-24T01:00:12;0.70;;;0.52;;
54831;SDS011;40730;53.068;6.572;2023-04-24T01:02:42;0.90;;;0.30;;
54831;SDS011;40730;53.068;6.572;2023-04-24T01:05:10;0.90;;;0.63;;
54831;SDS011;40730;53.068;6.572;2023-04-24T01:07:36;0.95;;;0.57;;
54831;SDS011;40730;53.068;6.572;2023-04-24T01:10:04;2.22;;;1.00;;
54831;SDS011;40730;53.068;6.572;2023-04-24T01:12:30;1.23;;;0.98;;
54831;SDS011;40730;53.068;6.572;2023-04-24T01:14:55;1.17;;;1.00;;
54831;SDS011;40730;53.068;6.572;2023-04-24T01:17:22;2.28;;;1.33;;
54831;SDS011;40730;53.068;6.572;2023-04-24T01:19:47;1.85;;;1.20;;
54831;SDS011;40730;53.068;6.572;2023-04-24T01:22:13;1.77;;;1.27;;
54831;SDS011;40730;53.068;6.572;2023-04-24T01:24:40;1.75;;;1.65;;
54831;SDS011;40730;53.068;6.572;2023-04-24T01:27:07;1.80;;;1.70;;
54831;SDS011;40730;53.068;6.572;2023-04-24T01:29:34;1.48;;;1.38;;
54831;SDS011;40730;53.068;6.572;2023-04-24T01:32:00;2.58;;;2.38;;
54831;SDS011;40730;53.068;6.572;2023-04-24T01:34:26;2.60;;;2.30;;
54831;SDS011;40730;53.068;6.572;2023-04-24T01:36:51;2.75;;;2.55;;
54831;SDS011;40730;53.068;6.572;2023-04-24T01:39:17;3.05;;;2.83;;
54831;SDS011;40730;53.068;6.572;2023-04-24T01:41:45;3.55;;;3.22;;
54831;SDS011;40730;53.068;6.572;2023-04-24T01:44:11;3.38;;;2.78;;
54831;SDS011;40730;53.068;6.572;2023-04-24T01:46:37;4.35;;;3.95;;
54831;SDS011;40730;53.068;6.572;2023-04-24T01:49:03;3.75;;;3.42;;
54831;SDS011;40730;53.068;6.572;2023-04-24T01:51:29;3.85;;;3.55;;
54831;SDS011;40730;53.068;6.572;2023-04-24T01:53:55;3.92;;;3.63;;
54831;SDS011;40730;53.068;6.572;2023-04-24T01:56:21;5.97;;;4.75;;
54831;SDS011;40730;53.068;6.572;2023-04-24T01:58:48;5.38;;;3.95;;
54831;SDS011;40730;53.068;6.572;2023-04-24T02:01:20;4.38;;;4.00;;
54831;SDS011;40730;53.068;6.572;2023-04-24T02:03:46;8.65;;;5.25;;
54831;SDS011;40730;53.068;6.572;2023-04-24T02:06:12;6.38;;;5.78;;
54831;SDS011;40730;53.068;6.572;2023-04-24T02:08:37;5.80;;;5.30;;
54831;SDS011;40730;53.068;6.572;2023-04-24T02:11:03;6.72;;;5.93;;
54831;SDS011;40730;53.068;6.572;2023-04-24T02:13:28;7.35;;;6.32;;
54831;SDS011;40730;53.068;6.572;2023-04-24T02:15:54;7.95;;;7.07;;
54831;SDS011;40730;53.068;6.572;2023-04-24T02:18:20;7.72;;;6.93;;
54831;SDS011;40730;53.068;6.572;2023-04-24T02:20:47;8.95;;;7.03;;
54831;SDS011;40730;53.068;6.572;2023-04-24T02:23:13;11.40;;;7.72;;
54831;SDS011;40730;53.068;6.572;2023-04-24T02:25:39;10.25;;;8.35;;
54831;SDS011;40730;53.068;6.572;2023-04-24T02:28:05;10.85;;;8.43;;
54831;SDS011;40730;53.068;6.572;2023-04-24T02:30:30;9.75;;;8.63;;
54831;SDS011;40730;53.068;6.572;2023-04-24T02:32:56;11.00;;;8.98;;
54831;SDS011;40730;53.068;6.572;2023-04-24T02:35:21;10.98;;;9.02;;
54831;SDS011;40730;53.068;6.572;2023-04-24T02:37:47;11.40;;;9.35;;
54831;SDS011;40730;53.068;6.572;2023-04-24T02:40:13;11.57;;;9.07;;
54831;SDS011;40730;53.068;6.572;2023-04-24T02:42:38;10.43;;;8.88;;
54831;SDS011;40730;53.068;6.572;2023-04-24T02:45:04;11.13;;;8.60;;
54831;SDS011;40730;53.068;6.572;2023-04-24T02:47:30;11.27;;;9.27;;
54831;SDS011;40730;53.068;6.572;2023-04-24T02:49:56;13.25;;;10.05;;
54831;SDS011;40730;53.068;6.572;2023-04-24T02:52:21;14.85;;;12.30;;
54831;SDS011;40730;53.068;6.572;2023-04-24T02:54:47;16.02;;;12.82;;
54831;SDS011;40730;53.068;6.572;2023-04-24T02:57:12;16.08;;;14.38;;
54831;SDS011;40730;53.068;6.572;2023-04-24T02:59:38;18.40;;;14.95;;
54831;SDS011;40730;53.068;6.572;2023-04-24T03:02:04;17.70;;;15.48;;
54831;SDS011;40730;53.068;6.572;2023-04-24T03:04:30;19.70;;;15.60;;
54831;SDS011;40730;53.068;6.572;2023-04-24T03:06:57;18.52;;;16.42;;
54831;SDS011;40730;53.068;6.572;2023-04-24T03:09:22;17.70;;;15.80;;
54831;SDS011;40730;53.068;6.572;2023-04-24T03:11:48;16.90;;;15.10;;
54831;SDS011;40730;53.068;6.572;2023-04-24T03:14:14;16.70;;;14.98;;
54831;SDS011;40730;53.068;6.572;2023-04-24T03:16:40;16.50;;;14.80;;
54831;SDS011;40730;53.068;6.572;2023-04-24T03:19:06;15.57;;;14.00;;
54831;SDS011;40730;53.068;6.572;2023-04-24T03:21:32;14.93;;;13.45;;
54831;SDS011;40730;53.068;6.572;2023-04-24T03:23:58;14.48;;;12.88;;
54831;SDS011;40730;53.068;6.572;2023-04-24T03:26:23;15.52;;;13.93;;
54831;SDS011;40730;53.068;6.572;2023-04-24T03:28:49;13.35;;;12.00;;
54831;SDS011;40730;53.068;6.572;2023-04-24T03:31:15;12.95;;;11.50;;
54831;SDS011;40730;53.068;6.572;2023-04-24T03:33:41;12.98;;;11.63;;
54831;SDS011;40730;53.068;6.572;2023-04-24T03:36:07;13.43;;;12.13;;
54831;SDS011;40730;53.068;6.572;2023-04-24T03:38:32;13.70;;;12.27;;
54831;SDS011;40730;53.068;6.572;2023-04-24T03:40:58;12.98;;;10.55;;
54831;SDS011;40730;53.068;6.572;2023-04-24T03:43:24;11.65;;;10.45;;
54831;SDS011;40730;53.068;6.572;2023-04-24T03:45:49;11.73;;;10.38;;
54831;SDS011;40730;53.068;6.572;2023-04-24T03:48:15;12.15;;;10.95;;
54831;SDS011;40730;53.068;6.572;2023-04-24T03:50:41;11.63;;;9.95;;
54831;SDS011;40730;53.068;6.572;2023-04-24T03:53:07;11.40;;;10.30;;
54831;SDS011;40730;53.068;6.572;2023-04-24T03:55:33;10.82;;;9.70;;
54831;SDS011;40730;53.068;6.572;2023-04-24T03:57:58;11.52;;;10.40;;
54831;SDS011;40730;53.068;6.572;2023-04-24T04:00:24;11.02;;;9.38;;
54831;SDS011;40730;53.068;6.572;2023-04-24T04:02:51;9.55;;;8.15;;
54831;SDS011;40730;53.068;6.572;2023-04-24T04:05:16;9.35;;;8.43;;
54831;SDS011;40730;53.068;6.572;2023-04-24T04:07:42;10.02;;;8.43;;
54831;SDS011;40730;53.068;6.572;2023-04-24T04:10:07;7.85;;;7.13;;
54831;SDS011;40730;53.068;6.572;2023-04-24T04:12:33;8.52;;;7.60;;
54831;SDS011;40730;53.068;6.572;2023-04-24T04:14:59;10.70;;;7.45;;
54831;SDS011;40730;53.068;6.572;2023-04-24T04:17:25;9.23;;;6.85;;
54831;SDS011;40730;53.068;6.572;2023-04-24T04:19:50;10.20;;;7.20;;
54831;SDS011;40730;53.068;6.572;2023-04-24T04:22:16;8.27;;;7.22;;
54831;SDS011;40730;53.068;6.572;2023-04-24T04:24:41;8.57;;;7.70;;
54831;SDS011;40730;53.068;6.572;2023-04-24T04:27:08;9.60;;;8.07;;
54831;SDS011;40730;53.068;6.572;2023-04-24T04:29:33;9.85;;;8.35;;
54831;SDS011;40730;53.068;6.572;2023-04-24T04:31:59;9.45;;;8.45;;
54831;SDS011;40730;53.068;6.572;2023-04-24T04:34:26;11.93;;;9.32;;
54831;SDS011;40730;53.068;6.572;2023-04-24T04:36:51;11.73;;;8.98;;
54831;SDS011;40730;53.068;6.572;2023-04-24T04:39:17;11.25;;;9.55;;
54831;SDS011;40730;53.068;6.572;2023-04-24T04:41:43;14.07;;;9.20;;
54831;SDS011;40730;53.068;6.572;2023-04-24T04:44:11;8.63;;;7.35;;
54831;SDS011;40730;53.068;6.572;2023-04-24T04:46:37;9.63;;;8.13;;
54831;SDS011;40730;53.068;6.572;2023-04-24T04:49:03;9.07;;;7.63;;
54831;SDS011;40730;53.068;6.572;2023-04-24T04:51:29;9.45;;;7.53;;
54831;SDS011;40730;53.068;6.572;2023-04-24T04:53:56;8.70;;;6.93;;
54831;SDS011;40730;53.068;6.572;2023-04-24T04:56:21;7.82;;;6.93;;
54831;SDS011;40730;53.068;6.572;2023-04-24T04:58:47;7.50;;;6.00;;
54831;SDS011;40730;53.068;6.572;2023-04-24T05:01:13;6.78;;;6.07;;
54831;SDS011;40730;53.068;6.572;2023-04-24T05:03:38;6.80;;;5.30;;
54831;SDS011;40730;53.068;6.572;2023-04-24T05:06:04;6.72;;;6.03;;
54831;SDS011;40730;53.068;6.572;2023-04-24T05:08:30;7.18;;;5.20;;
54831;SDS011;40730;53.068;6.572;2023-04-24T05:10:56;4.35;;;3.92;;
54831;SDS011;40730;53.068;6.572;2023-04-24T05:13:22;4.50;;;4.03;;
54831;SDS011;40730;53.068;6.572;2023-04-24T05:15:47;6.90;;;3.92;;
54831;SDS011;40730;53.068;6.572;2023-04-24T05:18:13;4.50;;;4.10;;
54831;SDS011;40730;53.068;6.572;2023-04-24T05:20:38;1.88;;;1.70;;
54831;SDS011;40730;53.068;6.572;2023-04-24T05:23:04;2.17;;;1.25;;
54831;SDS011;40730;53.068;6.572;2023-04-24T05:25:30;1.65;;;1.50;;
54831;SDS011;40730;53.068;6.572;2023-04-24T05:28:00;1.58;;;1.25;;
54831;SDS011;40730;53.068;6.572;2023-04-24T05:30:26;1.20;;;1.00;;
54831;SDS011;40730;53.068;6.572;2023-04-24T05:32:51;1.15;;;0.82;;
54831;SDS011;40730;53.068;6.572;2023-04-24T05:35:17;1.38;;;0.82;;
54831;SDS011;40730;53.068;6.572;2023-04-24T05:37:43;1.38;;;0.93;;
54831;SDS011;40730;53.068;6.572;2023-04-24T05:40:09;1.70;;;1.10;;
54831;SDS011;40730;53.068;6.572;2023-04-24T05:42:36;2.83;;;1.42;;
54831;SDS011;40730;53.068;6.572;2023-04-24T05:45:01;1.98;;;0.88;;
54831;SDS011;40730;53.068;6.572;2023-04-24T05:47:27;1.15;;;0.90;;
54831;SDS011;40730;53.068;6.572;2023-04-24T05:49:53;1.08;;;0.60;;
54831;SDS011;40730;53.068;6.572;2023-04-24T05:52:18;2.15;;;1.00;;
54831;SDS011;40730;53.068;6.572;2023-04-24T05:54:44;1.35;;;0.75;;
54831;SDS011;40730;53.068;6.572;2023-04-24T05:57:10;3.05;;;1.80;;
54831;SDS011;40730;53.068;6.572;2023-04-24T05:59:36;2.78;;;2.15;;
54831;SDS011;40730;53.068;6.572;2023-04-24T06:02:05;2.75;;;1.92;;
54831;SDS011;40730;53.068;6.572;2023-04-24T06:04:31;2.28;;;1.65;;
54831;SDS011;40730;53.068;6.572;2023-04-24T06:06:57;3.90;;;2.55;;
54831;SDS011;40730;53.068;6.572;2023-04-24T06:09:23;2.03;;;1.45;;
54831;SDS011;40730;53.068;6.572;2023-04-24T06:11:49;1.75;;;1.38;;
54831;SDS011;40730;53.068;6.572;2023-04-24T06:14:17;3.00;;;1.65;;
54831;SDS011;40730;53.068;6.572;2023-04-24T06:16:43;2.55;;;1.40;;
54831;SDS011;40730;53.068;6.572;2023-04-24T06:19:09;2.00;;;1.52;;
54831;SDS011;40730;53.068;6.572;2023-04-24T06:21:34;3.13;;;2.10;;
54831;SDS011;40730;53.068;6.572;2023-04-24T06:24:00;2.60;;;1.90;;
54831;SDS011;40730;53.068;6.572;2023-04-24T06:26:26;4.75;;;2.38;;
54831;SDS011;40730;53.068;6.572;2023-04-24T06:28:52;5.68;;;2.80;;
54831;SDS011;40730;53.068;6.572;2023-04-24T06:31:21;7.22;;;2.90;;
54831;SDS011;40730;53.068;6.572;2023-04-24T06:33:48;4.75;;;2.97;;
54831;SDS011;40730;53.068;6.572;2023-04-24T06:36:14;8.82;;;3.72;;
54831;SDS011;40730;53.068;6.572;2023-04-24T06:38:40;8.40;;;4.22;;
54831;SDS011;40730;53.068;6.572;2023-04-24T06:41:06;6.03;;;3.80;;
54831;SDS011;40730;53.068;6.572;2023-04-24T06:43:32;8.38;;;4.20;;
54831;SDS011;40730;53.068;6.572;2023-04-24T06:45:59;6.10;;;4.57;;
54831;SDS011;40730;53.068;6.572;2023-04-24T06:48:25;9.07;;;5.20;;
54831;SDS011;40730;53.068;6.572;2023-04-24T06:50:51;8.95;;;5.90;;
54831;SDS011;40730;53.068;6.572;2023-04-24T06:53:17;12.52;;;6.32;;
54831;SDS011;40730;53.068;6.572;2023-04-24T06:55:43;12.43;;;7.47;;
54831;SDS011;40730;53.068;6.572;2023-04-24T06:58:11;11.68;;;6.55;;
54831;SDS011;40730;53.068;6.572;2023-04-24T07:00:36;10.10;;;5.95;;
54831;SDS011;40730;53.068;6.572;2023-04-24T07:03:02;12.35;;;6.97;;
54831;SDS011;40730;53.068;6.572;2023-04-24T07:05:30;7.80;;;5.78;;
54831;SDS011;40730;53.068;6.572;2023-04-24T07:07:56;7.68;;;4.88;;
54831;SDS011;40730;53.068;6.572;2023-04-24T07:10:23;5.25;;;4.05;;
54831;SDS011;40730;53.068;6.572;2023-04-24T07:12:50;5.32;;;3.80;;
54831;SDS011;40730;53.068;6.572;2023-04-24T07:15:16;5.63;;;3.60;;
54831;SDS011;40730;53.068;6.572;2023-04-24T07:17:42;7.15;;;4.10;;
54831;SDS011;40730;53.068;6.572;2023-04-24T07:20:10;6.85;;;3.55;;
54831;SDS011;40730;53.068;6.572;2023-04-24T07:22:39;4.65;;;2.17;;
54831;SDS011;40730;53.068;6.572;2023-04-24T07:25:05;5.03;;;2.22;;
54831;SDS011;40730;53.068;6.572;2023-04-24T07:27:32;5.57;;;1.83;;
54831;SDS011;40730;53.068;6.572;2023-04-24T07:29:58;6.38;;;2.35;;
54831;SDS011;40730;53.068;6.572;2023-04-24T07:32:24;3.15;;;0.95;;
54831;SDS011;40730;53.068;6.572;2023-04-24T07:34:50;4.90;;;1.00;;
54831;SDS011;40730;53.068;6.572;2023-04-24T07:37:15;1.60;;;0.90;;
54831;SDS011;40730;53.068;6.572;2023-04-24T07:39:41;2.45;;;1.02;;
54831;SDS011;40730;53.068;6.572;2023-04-24T07:42:07;3.40;;;1.02;;
54831;SDS011;40730;53.068;6.572;2023-04-24T07:44:32;4.97;;;1.60;;
54831;SDS011;40730;53.068;6.572;2023-04-24T07:46:58;2.42;;;1.30;;
54831;SDS011;40730;53.068;6.572;2023-04-24T07:49:23;5.25;;;1.60;;
54831;SDS011;40730;53.068;6.572;2023-04-24T07:51:49;3.38;;;1.73;;
54831;SDS011;40730;53.068;6.572;2023-04-24T07:54:15;5.28;;;1.55;;
54831;SDS011;40730;53.068;6.572;2023-04-24T07:56:41;3.33;;;1.20;;
54831;SDS011;40730;53.068;6.572;2023-04-24T07:59:08;3.33;;;1.13;;
54831;SDS011;40730;53.068;6.572;2023-04-24T08:01:35;5.70;;;1.83;;
54831;SDS011;40730;53.068;6.572;2023-04-24T08:04:00;6.88;;;1.98;;
54831;SDS011;40730;53.068;6.572;2023-04-24T08:06:26;7.38;;;2.70;;
54831;SDS011;40730;53.068;6.572;2023-04-24T08:08:56;10.02;;;4.35;;
54831;SDS011;40730;53.068;6.572;2023-04-24T08:11:22;11.15;;;5.68;;
54831;SDS011;40730;53.068;6.572;2023-04-24T08:13:49;11.45;;;6.43;;
54831;SDS011;40730;53.068;6.572;2023-04-24T08:16:14;14.13;;;7.68;;
54831;SDS011;40730;53.068;6.572;2023-04-24T08:18:40;18.30;;;9.75;;
54831;SDS011;40730;53.068;6.572;2023-04-24T08:21:06;22.52;;;11.10;;
54831;SDS011;40730;53.068;6.572;2023-04-24T08:23:32;23.25;;;11.82;;
54831;SDS011;40730;53.068;6.572;2023-04-24T08:25:57;21.70;;;12.45;;
54831;SDS011;40730;53.068;6.572;2023-04-24T08:28:23;28.15;;;13.23;;
54831;SDS011;40730;53.068;6.572;2023-04-24T08:30:49;27.45;;;13.27;;
54831;SDS011;40730;53.068;6.572;2023-04-24T08:33:19;26.33;;;13.63;;
54831;SDS011;40730;53.068;6.572;2023-04-24T08:35:48;29.33;;;14.70;;
54831;SDS011;40730;53.068;6.572;2023-04-24T08:38:14;29.20;;;15.73;;
54831;SDS011;40730;53.068;6.572;2023-04-24T08:40:40;30.90;;;16.65;;
54831;SDS011;40730;53.068;6.572;2023-04-24T08:43:06;25.48;;;14.85;;
54831;SDS011;40730;53.068;6.572;2023-04-24T08:45:32;29.52;;;14.82;;
54831;SDS011;40730;53.068;6.572;2023-04-24T08:47:58;25.08;;;14.20;;
54831;SDS011;40730;53.068;6.572;2023-04-24T08:50:25;27.27;;;14.23;;
54831;SDS011;40730;53.068;6.572;2023-04-24T08:52:51;26.55;;;13.07;;
54831;SDS011;40730;53.068;6.572;2023-04-24T08:55:18;26.27;;;14.18;;
54831;SDS011;40730;53.068;6.572;2023-04-24T08:57:45;30.55;;;13.98;;
54831;SDS011;40730;53.068;6.572;2023-04-24T09:00:16;27.35;;;14.43;;
54831;SDS011;40730;53.068;6.572;2023-04-24T09:02:42;29.70;;;15.07;;
54831;SDS011;40730;53.068;6.572;2023-04-24T09:05:09;24.05;;;14.25;;
54831;SDS011;40730;53.068;6.572;2023-04-24T09:07:35;30.83;;;14.45;;
54831;SDS011;40730;53.068;6.572;2023-04-24T09:10:04;24.67;;;13.82;;
54831;SDS011;40730;53.068;6.572;2023-04-24T09:12:31;24.98;;;15.32;;
54831;SDS011;40730;53.068;6.572;2023-04-24T09:14:59;25.35;;;15.05;;
54831;SDS011;40730;53.068;6.572;2023-04-24T09:17:25;22.85;;;13.88;;
54831;SDS011;40730;53.068;6.572;2023-04-24T09:19:53;20.92;;;12.65;;
54831;SDS011;40730;53.068;6.572;2023-04-24T09:22:18;22.50;;;13.13;;
54831;SDS011;40730;53.068;6.572;2023-04-24T09:24:46;16.13;;;10.68;;
54831;SDS011;40730;53.068;6.572;2023-04-24T09:27:12;17.70;;;11.45;;
54831;SDS011;40730;53.068;6.572;2023-04-24T09:29:39;15.10;;;10.30;;
54831;SDS011;40730;53.068;6.572;2023-04-24T09:32:19;18.42;;;9.65;;
54831;SDS011;40730;53.068;6.572;2023-04-24T09:35:04;20.15;;;11.20;;
54831;SDS011;40730;53.068;6.572;2023-04-24T09:37:36;18.27;;;9.32;;
54831;SDS011;40730;53.068;6.572;2023-04-24T09:40:07;13.27;;;6.97;;
54831;SDS011;40730;53.068;6.572;2023-04-24T09:42:44;13.38;;;8.45;;
54831;SDS011;40730;53.068;6.572;2023-04-24T09:45:11;12.07;;;7.20;;
54831;SDS011;40730;53.068;6.572;2023-04-24T09:47:37;13.65;;;7.93;;
54831;SDS011;40730;53.068;6.572;2023-04-24T09:50:15;11.65;;;7.88;;
54831;SDS011;40730;53.068;6.572;2023-04-24T09:53:03;13.02;;;7.68;;
54831;SDS011;40730;53.068;6.572;2023-04-24T09:55:29;13.40;;;6.97;;
54831;SDS011;40730;53.068;6.572;2023-04-24T09:57:56;10.95;;;7.25;;
54831;SDS011;40730;53.068;6.572;2023-04-24T10:00:27;16.63;;;6.18;;
54831;SDS011;40730;53.068;6.572;2023-04-24T10:02:58;12.50;;;5.60;;
54831;SDS011;40730;53.068;6.572;2023-04-24T10:08:05;12.35;;;5.55;;
54831;SDS011;40730;53.068;6.572;2023-04-24T10:10:40;16.98;;;5.38;;
54831;SDS011;40730;53.068;6.572;2023-04-24T10:13:12;15.18;;;5.75;;
54831;SDS011;40730;53.068;6.572;2023-04-24T10:15:40;9.77;;;4.32;;
54831;SDS011;40730;53.068;6.572;2023-04-24T10:18:06;8.73;;;4.22;;
54831;SDS011;40730;53.068;6.572;2023-04-24T10:20:33;10.43;;;3.00;;
54831;SDS011;40730;53.068;6.572;2023-04-24T10:23:01;9.90;;;4.20;;
54831;SDS011;40730;53.068;6.572;2023-04-24T10:25:29;7.65;;;3.63;;
54831;SDS011;40730;53.068;6.572;2023-04-24T10:27:56;7.40;;;3.42;;
54831;SDS011;40730;53.068;6.572;2023-04-24T10:30:25;6.28;;;3.08;;
54831;SDS011;40730;53.068;6.572;2023-04-24T10:32:54;7.88;;;3.28;;
54831;SDS011;40730;53.068;6.572;2023-04-24T10:35:22;9.02;;;2.75;;
54831;SDS011;40730;53.068;6.572;2023-04-24T10:37:59;8.23;;;2.33;;
54831;SDS011;40730;53.068;6.572;2023-04-24T10:40:32;7.88;;;2.33;;
54831;SDS011;40730;53.068;6.572;2023-04-24T10:43:03;6.13;;;1.92;;
54831;SDS011;40730;53.068;6.572;2023-04-24T10:45:34;8.68;;;2.00;;
54831;SDS011;40730;53.068;6.572;2023-04-24T10:48:07;5.88;;;1.65;;
54831;SDS011;40730;53.068;6.572;2023-04-24T10:50:42;4.90;;;1.45;;
54831;SDS011;40730;53.068;6.572;2023-04-24T10:53:22;6.88;;;1.23;;
54831;SDS011;40730;53.068;6.572;2023-04-24T10:55:56;5.80;;;1.15;;
54831;SDS011;40730;53.068;6.572;2023-04-24T10:58:24;6.95;;;1.10;;
54831;SDS011;40730;53.068;6.572;2023-04-24T11:01:00;6.45;;;1.27;;
54831;SDS011;40730;53.068;6.572;2023-04-24T11:03:27;8.80;;;1.17;;
54831;SDS011;40730;53.068;6.572;2023-04-24T11:08:31;6.93;;;1.70;;
54831;SDS011;40730;53.068;6.572;2023-04-24T11:11:11;5.97;;;0.77;;
54831;SDS011;40730;53.068;6.572;2023-04-24T11:18:52;9.20;;;1.10;;
54831;SDS011;40730;53.068;6.572;2023-04-24T11:24:48;6.13;;;0.65;;
54831;SDS011;40730;53.068;6.572;2023-04-24T11:27:19;8.68;;;0.77;;
54831;SDS011;40730;53.068;6.572;2023-04-24T11:29:52;4.68;;;0.70;;
54831;SDS011;40730;53.068;6.572;2023-04-24T11:35:03;7.22;;;0.68;;
54831;SDS011;40730;53.068;6.572;2023-04-24T11:37:35;3.20;;;0.50;;
54831;SDS011;40730;53.068;6.572;2023-04-24T11:40:06;5.25;;;1.23;;
54831;SDS011;40730;53.068;6.572;2023-04-24T11:42:36;5.10;;;0.60;;
54831;SDS011;40730;53.068;6.572;2023-04-24T11:45:21;5.90;;;0.82;;
54831;SDS011;40730;53.068;6.572;2023-04-24T11:47:48;6.45;;;0.73;;
54831;SDS011;40730;53.068;6.572;2023-04-24T11:50:15;5.25;;;0.52;;
54831;SDS011;40730;53.068;6.572;2023-04-24T11:52:45;4.13;;;1.27;;
54831;SDS011;40730;53.068;6.572;2023-04-24T11:57:45;3.75;;;0.40;;
54831;SDS011;40730;53.068;6.572;2023-04-24T12:00:17;5.32;;;0.40;;
54831;SDS011;40730;53.068;6.572;2023-04-24T12:02:46;5.00;;;0.30;;
54831;SDS011;40730;53.068;6.572;2023-04-24T12:05:26;8.30;;;0.80;;
54831;SDS011;40730;53.068;6.572;2023-04-24T12:07:52;4.03;;;0.50;;
54831;SDS011;40730;53.068;6.572;2023-04-24T12:10:22;3.17;;;0.47;;
54831;SDS011;40730;53.068;6.572;2023-04-24T12:12:50;3.53;;;0.65;;
54831;SDS011;40730;53.068;6.572;2023-04-24T12:15:17;5.18;;;0.43;;
54831;SDS011;40730;53.068;6.572;2023-04-24T12:17:44;8.15;;;1.23;;
54831;SDS011;40730;53.068;6.572;2023-04-24T12:20:10;4.53;;;0.55;;
54831;SDS011;40730;53.068;6.572;2023-04-24T12:22:47;5.05;;;0.68;;
54831;SDS011;40730;53.068;6.572;2023-04-24T12:25:13;7.13;;;0.70;;
54831;SDS011;40730;53.068;6.572;2023-04-24T12:27:46;5.82;;;0.70;;
54831;SDS011;40730;53.068;6.572;2023-04-24T12:30:17;4.75;;;0.60;;
54831;SDS011;40730;53.068;6.572;2023-04-24T12:32:48;4.68;;;0.70;;
54831;SDS011;40730;53.068;6.572;2023-04-24T12:35:22;8.82;;;0.80;;
54831;SDS011;40730;53.068;6.572;2023-04-24T12:37:49;5.10;;;1.75;;
54831;SDS011;40730;53.068;6.572;2023-04-24T12:40:16;4.57;;;0.98;;
54831;SDS011;40730;53.068;6.572;2023-04-24T12:42:43;3.90;;;0.45;;
54831;SDS011;40730;53.068;6.572;2023-04-24T12:45:11;3.00;;;0.47;;
54831;SDS011;40730;53.068;6.572;2023-04-24T12:47:37;6.43;;;0.77;;
54831;SDS011;40730;53.068;6.572;2023-04-24T12:50:03;6.70;;;0.75;;
54831;SDS011;40730;53.068;6.572;2023-04-24T12:52:30;3.58;;;0.57;;
54831;SDS011;40730;53.068;6.572;2023-04-24T12:54:57;6.60;;;0.45;;
54831;SDS011;40730;53.068;6.572;2023-04-24T12:57:24;3.13;;;0.43;;
54831;SDS011;40730;53.068;6.572;2023-04-24T12:59:50;3.75;;;0.32;;
54831;SDS011;40730;53.068;6.572;2023-04-24T13:02:19;1.98;;;0.28;;
54831;SDS011;40730;53.068;6.572;2023-04-24T13:04:46;4.15;;;0.20;;
54831;SDS011;40730;53.068;6.572;2023-04-24T13:07:12;1.77;;;0.30;;
54831;SDS011;40730;53.068;6.572;2023-04-24T13:09:39;2.88;;;0.30;;
54831;SDS011;40730;53.068;6.572;2023-04-24T13:12:06;6.18;;;0.68;;
54831;SDS011;40730;53.068;6.572;2023-04-24T13:14:32;4.50;;;0.45;;
54831;SDS011;40730;53.068;6.572;2023-04-24T13:16:58;4.47;;;0.20;;
54831;SDS011;40730;53.068;6.572;2023-04-24T13:19:24;1.48;;;0.17;;
54831;SDS011;40730;53.068;6.572;2023-04-24T13:21:54;1.55;;;0.20;;
54831;SDS011;40730;53.068;6.572;2023-04-24T13:24:21;7.35;;;0.50;;
54831;SDS011;40730;53.068;6.572;2023-04-24T13:26:49;2.80;;;0.43;;
54831;SDS011;40730;53.068;6.572;2023-04-24T13:29:16;4.00;;;0.20;;
54831;SDS011;40730;53.068;6.572;2023-04-24T13:31:42;3.67;;;0.20;;
54831;SDS011;40730;53.068;6.572;2023-04-24T13:34:07;4.55;;;0.30;;
54831;SDS011;40730;53.068;6.572;2023-04-24T13:36:33;2.67;;;0.10;;
54831;SDS011;40730;53.068;6.572;2023-04-24T13:38:58;2.53;;;0.20;;
54831;SDS011;40730;53.068;6.572;2023-04-24T13:41:24;1.50;;;0.20;;
54831;SDS011;40730;53.068;6.572;2023-04-24T13:43:50;1.60;;;0.00;;
54831;SDS011;40730;53.068;6.572;2023-04-24T13:46:15;3.47;;;0.10;;
54831;SDS011;40730;53.068;6.572;2023-04-24T13:48:41;2.92;;;0.15;;
54831;SDS011;40730;53.068;6.572;2023-04-24T13:51:07;1.48;;;0.10;;
54831;SDS011;40730;53.068;6.572;2023-04-24T13:53:32;1.25;;;0.00;;
54831;SDS011;40730;53.068;6.572;2023-04-24T14:24:12;6.07;;;0.22;;
54831;SDS011;40730;53.068;6.572;2023-04-24T14:26:38;5.10;;;0.63;;
54831;SDS011;40730;53.068;6.572;2023-04-24T14:29:04;5.10;;;0.35;;
54831;SDS011;40730;53.068;6.572;2023-04-24T14:31:29;4.15;;;0.55;;
54831;SDS011;40730;53.068;6.572;2023-04-24T14:33:55;8.85;;;0.80;;
54831;SDS011;40730;53.068;6.572;2023-04-24T14:36:22;10.43;;;0.82;;
54831;SDS011;40730;53.068;6.572;2023-04-24T14:38:48;6.60;;;0.80;;
54831;SDS011;40730;53.068;6.572;2023-04-24T14:41:14;7.70;;;0.75;;
54831;SDS011;40730;53.068;6.572;2023-04-24T14:43:40;8.70;;;0.98;;
54831;SDS011;40730;53.068;6.572;2023-04-24T14:46:05;10.25;;;1.92;;
54831;SDS011;40730;53.068;6.572;2023-04-24T14:48:31;7.95;;;1.25;;
54831;SDS011;40730;53.068;6.572;2023-04-24T14:50:57;13.77;;;1.08;;
54831;SDS011;40730;53.068;6.572;2023-04-24T14:53:23;7.80;;;1.27;;
54831;SDS011;40730;53.068;6.572;2023-04-24T14:55:49;11.82;;;1.20;;
54831;SDS011;40730;53.068;6.572;2023-04-24T14:58:15;9.13;;;1.10;;
54831;SDS011;40730;53.068;6.572;2023-04-24T15:00:41;8.18;;;1.48;;
54831;SDS011;40730;53.068;6.572;2023-04-24T15:03:07;8.23;;;1.95;;
54831;SDS011;40730;53.068;6.572;2023-04-24T15:05:33;7.97;;;1.17;;
54831;SDS011;40730;53.068;6.572;2023-04-24T15:07:59;6.30;;;1.20;;
54831;SDS011;40730;53.068;6.572;2023-04-24T15:10:24;6.68;;;1.50;;
54831;SDS011;40730;53.068;6.572;2023-04-24T15:12:50;8.02;;;1.40;;
54831;SDS011;40730;53.068;6.572;2023-04-24T15:15:16;5.90;;;0.80;;
54831;SDS011;40730;53.068;6.572;2023-04-24T15:17:42;11.05;;;1.75;;
54831;SDS011;40730;53.068;6.572;2023-04-24T15:20:08;9.05;;;1.13;;
54831;SDS011;40730;53.068;6.572;2023-04-24T15:22:34;7.10;;;1.35;;
54831;SDS011;40730;53.068;6.572;2023-04-24T15:24:59;8.98;;;1.73;;
54831;SDS011;40730;53.068;6.572;2023-04-24T15:27:26;10.95;;;1.98;;